UAL366 KSFO-KSNA
Flight info
| Callsign | UAL366 |
|---|---|
| Flight time | 1h 6m |
| Altitude | 37000 |
| Route | WESLA5 YYUNG TILLT RUKKI1 |
| Aircraft | B38M/M-SDE1FGHILORVWXY/HB1 |
Departure
| Time | 2026-05-07 20:10 |
|---|---|
| Airport | San Francisco International Airport (KSFO) |
Arrival
| Time | 2026-05-07 21:16 |
|---|---|
| Airport | John Wayne Orange County International Airport (KSNA) |
| Time | Latitude | Longitude | Altitude | Speed | Heading |
|---|---|---|---|---|---|
| 2026-05-07 19:49 | 37.62021 | -122.38943 | 24 ft | 0 kts | 27° |
| 2026-05-07 19:57 | 37.62004 | -122.38954 | 24 ft | 4 kts | 27° |
| 2026-05-07 19:57 | 37.61980 | -122.38970 | 28 ft | 4 kts | 27° |
| 2026-05-07 19:57 | 37.61956 | -122.38986 | 27 ft | 4 kts | 27° |
| 2026-05-07 19:57 | 37.61932 | -122.39002 | 28 ft | 4 kts | 27° |
| 2026-05-07 19:58 | 37.61928 | -122.39005 | 24 ft | 0 kts | 27° |
| 2026-05-07 20:00 | 37.61928 | -122.39004 | 24 ft | 1 kts | 27° |
| 2026-05-07 20:00 | 37.61954 | -122.39015 | 29 ft | 10 kts | 314° |
| 2026-05-07 20:01 | 37.61996 | -122.39112 | 24 ft | 14 kts | 297° |
| 2026-05-07 20:01 | 37.62053 | -122.39209 | 28 ft | 14 kts | 342° |
| 2026-05-07 20:01 | 37.62135 | -122.39169 | 24 ft | 14 kts | 28° |
| 2026-05-07 20:01 | 37.62203 | -122.39122 | 24 ft | 2 kts | 30° |
| 2026-05-07 20:02 | 37.62222 | -122.39106 | 26 ft | 3 kts | 45° |
| 2026-05-07 20:02 | 37.62227 | -122.39097 | 37 ft | 2 kts | 59° |
| 2026-05-07 20:02 | 37.62235 | -122.39070 | 26 ft | 5 kts | 72° |
| 2026-05-07 20:02 | 37.62249 | -122.39013 | 26 ft | 9 kts | 72° |
| 2026-05-07 20:03 | 37.62261 | -122.38920 | 25 ft | 13 kts | 100° |
| 2026-05-07 20:03 | 37.62218 | -122.38806 | 26 ft | 16 kts | 117° |
| 2026-05-07 20:03 | 37.62159 | -122.38665 | 27 ft | 20 kts | 117° |
| 2026-05-07 20:03 | 37.62094 | -122.38508 | 28 ft | 22 kts | 117° |
| 2026-05-07 20:04 | 37.62046 | -122.38393 | 24 ft | 13 kts | 117° |
| 2026-05-07 20:04 | 37.61998 | -122.38279 | 25 ft | 17 kts | 118° |
| 2026-05-07 20:04 | 37.61939 | -122.38133 | 27 ft | 20 kts | 115° |
| 2026-05-07 20:04 | 37.61875 | -122.37987 | 27 ft | 20 kts | 119° |
| 2026-05-07 20:05 | 37.61811 | -122.37812 | 24 ft | 24 kts | 109° |
| 2026-05-07 20:05 | 37.61747 | -122.37608 | 27 ft | 16 kts | 110° |
| 2026-05-07 20:05 | 37.61697 | -122.37461 | 24 ft | 20 kts | 117° |
| 2026-05-07 20:05 | 37.61630 | -122.37302 | 27 ft | 20 kts | 118° |
| 2026-05-07 20:06 | 37.61563 | -122.37143 | 26 ft | 19 kts | 117° |
| 2026-05-07 20:06 | 37.61499 | -122.36987 | 27 ft | 21 kts | 118° |
| 2026-05-07 20:06 | 37.61403 | -122.36838 | 24 ft | 18 kts | 131° |
| 2026-05-07 20:06 | 37.61334 | -122.36719 | 24 ft | 18 kts | 115° |
| 2026-05-07 20:07 | 37.61277 | -122.36571 | 24 ft | 20 kts | 117° |
| 2026-05-07 20:07 | 37.61210 | -122.36410 | 24 ft | 22 kts | 118° |
| 2026-05-07 20:07 | 37.61144 | -122.36255 | 24 ft | 21 kts | 118° |
| 2026-05-07 20:07 | 37.61074 | -122.36091 | 24 ft | 19 kts | 118° |
| 2026-05-07 20:08 | 37.61054 | -122.35966 | 26 ft | 9 kts | 69° |
| 2026-05-07 20:08 | 37.61099 | -122.35902 | 28 ft | 11 kts | 25° |
| 2026-05-07 20:08 | 37.61177 | -122.35873 | 27 ft | 12 kts | 340° |
| 2026-05-07 20:08 | 37.61216 | -122.35941 | 24 ft | 0 kts | 297° |
| 2026-05-07 20:09 | 37.61220 | -122.35950 | 28 ft | 1 kts | 297° |
| 2026-05-07 20:09 | 37.61261 | -122.36051 | 24 ft | 44 kts | 297° |
| 2026-05-07 20:09 | 37.61520 | -122.36666 | 27 ft | 114 kts | 298° |
| 2026-05-07 20:10 | 37.62556 | -122.39114 | 460 ft | 188 kts | 298° |
| 2026-05-07 20:10 | 37.63180 | -122.40622 | 1366 ft | 189 kts | 296° |
| 2026-05-07 20:10 | 37.63786 | -122.42159 | 2085 ft | 205 kts | 297° |
| 2026-05-07 20:10 | 37.64543 | -122.43850 | 2522 ft | 236 kts | 300° |
| 2026-05-07 20:11 | 37.65350 | -122.45629 | 3627 ft | 233 kts | 299° |
| 2026-05-07 20:11 | 37.66158 | -122.47422 | 4575 ft | 240 kts | 298° |
| 2026-05-07 20:11 | 37.66850 | -122.49389 | 5349 ft | 254 kts | 281° |
| 2026-05-07 20:11 | 37.66741 | -122.51644 | 6029 ft | 266 kts | 246° |
| 2026-05-07 20:12 | 37.65653 | -122.53480 | 7110 ft | 264 kts | 218° |
| 2026-05-07 20:12 | 37.63975 | -122.54399 | 7971 ft | 274 kts | 188° |
| 2026-05-07 20:12 | 37.62082 | -122.54045 | 8912 ft | 283 kts | 157° |
| 2026-05-07 20:12 | 37.60313 | -122.52888 | 9774 ft | 289 kts | 159° |
| 2026-05-07 20:13 | 37.58408 | -122.52005 | 10532 ft | 298 kts | 162° |
| 2026-05-07 20:13 | 37.56402 | -122.51076 | 10973 ft | 318 kts | 161° |
| 2026-05-07 20:13 | 37.54276 | -122.50063 | 11423 ft | 334 kts | 161° |
| 2026-05-07 20:13 | 37.52074 | -122.48986 | 12028 ft | 343 kts | 160° |
| 2026-05-07 20:14 | 37.49821 | -122.47965 | 12804 ft | 346 kts | 168° |
| 2026-05-07 20:14 | 37.47430 | -122.47826 | 13555 ft | 345 kts | 188° |
| 2026-05-07 20:14 | 37.45029 | -122.48240 | 14208 ft | 352 kts | 188° |
| 2026-05-07 20:14 | 37.42589 | -122.48667 | 14824 ft | 355 kts | 189° |
| 2026-05-07 20:15 | 37.40131 | -122.49112 | 15461 ft | 360 kts | 189° |
| 2026-05-07 20:15 | 37.37636 | -122.49572 | 16032 ft | 365 kts | 189° |
| 2026-05-07 20:15 | 37.35110 | -122.50040 | 16633 ft | 369 kts | 189° |
| 2026-05-07 20:15 | 37.32553 | -122.50515 | 17212 ft | 374 kts | 189° |
| 2026-05-07 20:16 | 37.30002 | -122.50989 | 17786 ft | 378 kts | 189° |
| 2026-05-07 20:16 | 37.27383 | -122.51475 | 18340 ft | 382 kts | 189° |
| 2026-05-07 20:16 | 37.24739 | -122.51964 | 18847 ft | 386 kts | 189° |
| 2026-05-07 20:16 | 37.22072 | -122.52459 | 19343 ft | 389 kts | 189° |
| 2026-05-07 20:17 | 37.19388 | -122.52955 | 19865 ft | 391 kts | 189° |
| 2026-05-07 20:17 | 37.16679 | -122.53456 | 20347 ft | 395 kts | 189° |
| 2026-05-07 20:17 | 37.13945 | -122.53961 | 20833 ft | 399 kts | 189° |
| 2026-05-07 20:17 | 37.11198 | -122.54469 | 21340 ft | 402 kts | 189° |
| 2026-05-07 20:18 | 37.08424 | -122.54981 | 21827 ft | 405 kts | 188° |
| 2026-05-07 20:18 | 37.05622 | -122.55497 | 22369 ft | 408 kts | 189° |
| 2026-05-07 20:18 | 37.02787 | -122.55871 | 22848 ft | 412 kts | 179° |
| 2026-05-07 20:18 | 36.99964 | -122.55309 | 23382 ft | 415 kts | 162° |
| 2026-05-07 20:19 | 36.97331 | -122.53806 | 23842 ft | 419 kts | 150° |
| 2026-05-07 20:19 | 36.94773 | -122.52014 | 24265 ft | 423 kts | 150° |
| 2026-05-07 20:19 | 36.92207 | -122.50180 | 24661 ft | 427 kts | 150° |
| 2026-05-07 20:19 | 36.89637 | -122.48317 | 25186 ft | 428 kts | 149° |
| 2026-05-07 20:20 | 36.87065 | -122.46438 | 25573 ft | 433 kts | 149° |
| 2026-05-07 20:20 | 36.84458 | -122.44527 | 25984 ft | 436 kts | 149° |
| 2026-05-07 20:20 | 36.81840 | -122.42607 | 26486 ft | 437 kts | 149° |
| 2026-05-07 20:20 | 36.79205 | -122.40676 | 26848 ft | 442 kts | 149° |
| 2026-05-07 20:21 | 36.76543 | -122.38727 | 27237 ft | 445 kts | 149° |
| 2026-05-07 20:21 | 36.73872 | -122.36772 | 27706 ft | 447 kts | 149° |
| 2026-05-07 20:21 | 36.71173 | -122.34799 | 28036 ft | 452 kts | 149° |
| 2026-05-07 20:21 | 36.68462 | -122.32818 | 28537 ft | 452 kts | 149° |
| 2026-05-07 20:22 | 36.65753 | -122.30839 | 28916 ft | 455 kts | 149° |
| 2026-05-07 20:22 | 36.63000 | -122.28832 | 29213 ft | 460 kts | 149° |
| 2026-05-07 20:22 | 36.60235 | -122.26817 | 29694 ft | 461 kts | 149° |
| 2026-05-07 20:22 | 36.57454 | -122.24792 | 29961 ft | 466 kts | 149° |
| 2026-05-07 20:23 | 36.54647 | -122.22750 | 30374 ft | 467 kts | 149° |
| 2026-05-07 20:23 | 36.51836 | -122.20707 | 30697 ft | 470 kts | 149° |
| 2026-05-07 20:23 | 36.49000 | -122.18647 | 30952 ft | 473 kts | 150° |
| 2026-05-07 20:23 | 36.46156 | -122.16584 | 31369 ft | 473 kts | 150° |
| 2026-05-07 20:24 | 36.43308 | -122.14519 | 31588 ft | 478 kts | 150° |
| 2026-05-07 20:24 | 36.40470 | -122.12462 | 31954 ft | 478 kts | 150° |
| 2026-05-07 20:24 | 36.37592 | -122.10379 | 32313 ft | 480 kts | 150° |
| 2026-05-07 20:24 | 36.34694 | -122.08284 | 32528 ft | 484 kts | 150° |
| 2026-05-07 20:25 | 36.31785 | -122.06181 | 33011 ft | 481 kts | 150° |
| 2026-05-07 20:25 | 36.28893 | -122.04094 | 33450 ft | 480 kts | 150° |
| 2026-05-07 20:25 | 36.26005 | -122.02010 | 33874 ft | 480 kts | 150° |
| 2026-05-07 20:25 | 36.23138 | -121.99944 | 34267 ft | 479 kts | 150° |
| 2026-05-07 20:26 | 36.20256 | -121.97869 | 34603 ft | 479 kts | 150° |
| 2026-05-07 20:26 | 36.17385 | -121.95803 | 34987 ft | 477 kts | 150° |
| 2026-05-07 20:26 | 36.14505 | -121.93733 | 35145 ft | 479 kts | 150° |
| 2026-05-07 20:27 | 36.08781 | -121.89623 | 35143 ft | 474 kts | 150° |
| 2026-05-07 20:27 | 36.03072 | -121.85530 | 35138 ft | 474 kts | 150° |
| 2026-05-07 20:27 | 36.00374 | -121.83224 | 35111 ft | 474 kts | 137° |
| 2026-05-07 20:28 | 35.98184 | -121.80196 | 35146 ft | 474 kts | 128° |
| 2026-05-07 20:28 | 35.94097 | -121.73868 | 35126 ft | 473 kts | 128° |
| 2026-05-07 20:29 | 35.90042 | -121.67456 | 35131 ft | 474 kts | 127° |
| 2026-05-07 20:29 | 35.86003 | -121.61042 | 35128 ft | 474 kts | 127° |
| 2026-05-07 20:30 | 35.81955 | -121.54622 | 35131 ft | 474 kts | 127° |
| 2026-05-07 20:30 | 35.77904 | -121.48209 | 35122 ft | 474 kts | 127° |
| 2026-05-07 20:31 | 35.73854 | -121.41809 | 35125 ft | 474 kts | 127° |
| 2026-05-07 20:31 | 35.69807 | -121.35427 | 35126 ft | 474 kts | 127° |
| 2026-05-07 20:32 | 35.66435 | -121.30117 | 35134 ft | 474 kts | 127° |
| 2026-05-07 20:32 | 35.61702 | -121.22677 | 35121 ft | 475 kts | 127° |
| 2026-05-07 20:33 | 35.57642 | -121.16310 | 35114 ft | 472 kts | 127° |
| 2026-05-07 20:33 | 35.54279 | -121.11043 | 35116 ft | 472 kts | 127° |
| 2026-05-07 20:34 | 35.49925 | -121.05030 | 35113 ft | 473 kts | 139° |
| 2026-05-07 20:34 | 35.44962 | -120.99664 | 35098 ft | 476 kts | 137° |
| 2026-05-07 20:35 | 35.39996 | -120.94282 | 35120 ft | 475 kts | 137° |
| 2026-05-07 20:35 | 35.35071 | -120.88958 | 35079 ft | 472 kts | 137° |
| 2026-05-07 20:36 | 35.30112 | -120.83608 | 35097 ft | 476 kts | 137° |
| 2026-05-07 20:36 | 35.25137 | -120.78249 | 35088 ft | 476 kts | 137° |
| 2026-05-07 20:37 | 35.20163 | -120.72900 | 35084 ft | 476 kts | 137° |
| 2026-05-07 20:37 | 35.15191 | -120.67562 | 35080 ft | 478 kts | 137° |
| 2026-05-07 20:38 | 35.10183 | -120.62195 | 35089 ft | 479 kts | 137° |
| 2026-05-07 20:38 | 35.05199 | -120.56873 | 35103 ft | 479 kts | 140° |
| 2026-05-07 20:39 | 34.99709 | -120.52255 | 35099 ft | 481 kts | 145° |
| 2026-05-07 20:39 | 34.94140 | -120.47732 | 35107 ft | 482 kts | 146° |
| 2026-05-07 20:40 | 34.88551 | -120.43210 | 35101 ft | 481 kts | 146° |
| 2026-05-07 20:40 | 34.82966 | -120.38699 | 35106 ft | 481 kts | 145° |
| 2026-05-07 20:41 | 34.77439 | -120.34243 | 35111 ft | 481 kts | 145° |
| 2026-05-07 20:41 | 34.71850 | -120.29742 | 35105 ft | 481 kts | 145° |
| 2026-05-07 20:42 | 34.66261 | -120.25259 | 35064 ft | 481 kts | 146° |
| 2026-05-07 20:42 | 34.60657 | -120.20773 | 35065 ft | 483 kts | 146° |
| 2026-05-07 20:43 | 34.55044 | -120.16286 | 35057 ft | 483 kts | 146° |
| 2026-05-07 20:43 | 34.49430 | -120.11805 | 35057 ft | 483 kts | 146° |
| 2026-05-07 20:44 | 34.43837 | -120.07351 | 35059 ft | 479 kts | 145° |
| 2026-05-07 20:44 | 34.38307 | -120.02952 | 35065 ft | 479 kts | 146° |
| 2026-05-07 20:45 | 34.32741 | -119.98533 | 35071 ft | 479 kts | 146° |
| 2026-05-07 20:45 | 34.27167 | -119.94113 | 35076 ft | 479 kts | 146° |
| 2026-05-07 20:46 | 34.21574 | -119.89687 | 34635 ft | 480 kts | 145° |
| 2026-05-07 20:46 | 34.18756 | -119.87458 | 33488 ft | 489 kts | 145° |
| 2026-05-07 20:46 | 34.15919 | -119.85218 | 32708 ft | 488 kts | 146° |
| 2026-05-07 20:46 | 34.13097 | -119.82990 | 32143 ft | 482 kts | 146° |
| 2026-05-07 20:47 | 34.10296 | -119.80777 | 31523 ft | 478 kts | 144° |
| 2026-05-07 20:47 | 34.07779 | -119.78210 | 30810 ft | 473 kts | 129° |
| 2026-05-07 20:47 | 34.05878 | -119.75005 | 30189 ft | 468 kts | 120° |
| 2026-05-07 20:47 | 34.04152 | -119.71703 | 29588 ft | 463 kts | 120° |
| 2026-05-07 20:48 | 34.02465 | -119.68421 | 28952 ft | 459 kts | 120° |
| 2026-05-07 20:48 | 34.00827 | -119.65195 | 28365 ft | 455 kts | 120° |
| 2026-05-07 20:48 | 33.99194 | -119.61954 | 27765 ft | 452 kts | 120° |
| 2026-05-07 20:48 | 33.97575 | -119.58734 | 27172 ft | 448 kts | 120° |
| 2026-05-07 20:49 | 33.95963 | -119.55528 | 26591 ft | 445 kts | 120° |
| 2026-05-07 20:49 | 33.94365 | -119.52353 | 26016 ft | 442 kts | 120° |
| 2026-05-07 20:49 | 33.92779 | -119.49203 | 25437 ft | 439 kts | 120° |
| 2026-05-07 20:49 | 33.91201 | -119.46072 | 24946 ft | 434 kts | 120° |
| 2026-05-07 20:50 | 33.89663 | -119.42998 | 24630 ft | 426 kts | 119° |
| 2026-05-07 20:50 | 33.88157 | -119.39924 | 24032 ft | 425 kts | 119° |
| 2026-05-07 20:50 | 33.86663 | -119.36885 | 23533 ft | 422 kts | 119° |
| 2026-05-07 20:50 | 33.85171 | -119.33853 | 22974 ft | 419 kts | 119° |
| 2026-05-07 20:51 | 33.83693 | -119.30856 | 22463 ft | 414 kts | 119° |
| 2026-05-07 20:51 | 33.82232 | -119.27896 | 21981 ft | 410 kts | 119° |
| 2026-05-07 20:51 | 33.80784 | -119.24964 | 21507 ft | 405 kts | 119° |
| 2026-05-07 20:51 | 33.79353 | -119.22067 | 21046 ft | 401 kts | 119° |
| 2026-05-07 20:52 | 33.77951 | -119.19233 | 20601 ft | 398 kts | 118° |
| 2026-05-07 20:52 | 33.76523 | -119.16350 | 20143 ft | 394 kts | 118° |
| 2026-05-07 20:52 | 33.75126 | -119.13530 | 19709 ft | 391 kts | 118° |
| 2026-05-07 20:52 | 33.73763 | -119.10781 | 19275 ft | 388 kts | 118° |
| 2026-05-07 20:53 | 33.72388 | -119.08010 | 18853 ft | 385 kts | 118° |
| 2026-05-07 20:53 | 33.71021 | -119.05257 | 18419 ft | 382 kts | 118° |
| 2026-05-07 20:53 | 33.69664 | -119.02527 | 17941 ft | 380 kts | 118° |
| 2026-05-07 20:53 | 33.68316 | -118.99816 | 17492 ft | 376 kts | 118° |
| 2026-05-07 20:54 | 33.66989 | -118.97151 | 17062 ft | 366 kts | 118° |
| 2026-05-07 20:54 | 33.65703 | -118.94567 | 16634 ft | 358 kts | 118° |
| 2026-05-07 20:54 | 33.64426 | -118.92007 | 16198 ft | 356 kts | 118° |
| 2026-05-07 20:54 | 33.63157 | -118.89462 | 15789 ft | 354 kts | 118° |
| 2026-05-07 20:55 | 33.61895 | -118.86934 | 15392 ft | 351 kts | 118° |
| 2026-05-07 20:55 | 33.60649 | -118.84440 | 14996 ft | 349 kts | 118° |
| 2026-05-07 20:55 | 33.59402 | -118.81944 | 14596 ft | 347 kts | 118° |
| 2026-05-07 20:55 | 33.58161 | -118.79460 | 14195 ft | 345 kts | 118° |
| 2026-05-07 20:56 | 33.57137 | -118.76926 | 13754 ft | 342 kts | 103° |
| 2026-05-07 20:56 | 33.56661 | -118.74143 | 13281 ft | 339 kts | 99° |
| 2026-05-07 20:56 | 33.56200 | -118.71379 | 12870 ft | 337 kts | 99° |
| 2026-05-07 20:56 | 33.55749 | -118.68626 | 12448 ft | 335 kts | 99° |
| 2026-05-07 20:57 | 33.55304 | -118.65890 | 12022 ft | 334 kts | 99° |
| 2026-05-07 20:57 | 33.54862 | -118.63161 | 11599 ft | 333 kts | 99° |
| 2026-05-07 20:57 | 33.54421 | -118.60441 | 11179 ft | 332 kts | 99° |
| 2026-05-07 20:57 | 33.53982 | -118.57728 | 10753 ft | 331 kts | 99° |
| 2026-05-07 20:58 | 33.53543 | -118.55027 | 10336 ft | 331 kts | 100° |
| 2026-05-07 20:58 | 33.53104 | -118.52321 | 9913 ft | 330 kts | 99° |
| 2026-05-07 20:58 | 33.52666 | -118.49631 | 9437 ft | 325 kts | 99° |
| 2026-05-07 20:58 | 33.52241 | -118.47015 | 9015 ft | 313 kts | 98° |
| 2026-05-07 20:59 | 33.52090 | -118.44468 | 8589 ft | 302 kts | 89° |
| 2026-05-07 20:59 | 33.52056 | -118.41994 | 8221 ft | 291 kts | 91° |
| 2026-05-07 20:59 | 33.52001 | -118.39613 | 7866 ft | 282 kts | 91° |
| 2026-05-07 20:59 | 33.51937 | -118.37301 | 7520 ft | 273 kts | 91° |
| 2026-05-07 21:00 | 33.51866 | -118.35040 | 7194 ft | 273 kts | 91° |
| 2026-05-07 21:00 | 33.51999 | -118.32778 | 6859 ft | 273 kts | 72° |
| 2026-05-07 21:00 | 33.52664 | -118.30653 | 6590 ft | 271 kts | 68° |
| 2026-05-07 21:00 | 33.53326 | -118.28548 | 6327 ft | 269 kts | 68° |
| 2026-05-07 21:01 | 33.53988 | -118.26457 | 6069 ft | 271 kts | 68° |
| 2026-05-07 21:01 | 33.54653 | -118.24371 | 5807 ft | 272 kts | 68° |
| 2026-05-07 21:01 | 33.55329 | -118.22251 | 5539 ft | 272 kts | 68° |
| 2026-05-07 21:01 | 33.56006 | -118.20133 | 5270 ft | 271 kts | 68° |
| 2026-05-07 21:02 | 33.56686 | -118.18040 | 5047 ft | 266 kts | 64° |
| 2026-05-07 21:02 | 33.57643 | -118.16143 | 5023 ft | 267 kts | 54° |
| 2026-05-07 21:02 | 33.58691 | -118.14293 | 4989 ft | 268 kts | 54° |
| 2026-05-07 21:02 | 33.59734 | -118.12438 | 4990 ft | 269 kts | 55° |
| 2026-05-07 21:03 | 33.60777 | -118.10573 | 4969 ft | 270 kts | 54° |
| 2026-05-07 21:03 | 33.61825 | -118.08695 | 4997 ft | 271 kts | 54° |
| 2026-05-07 21:03 | 33.62873 | -118.06814 | 4987 ft | 271 kts | 55° |
| 2026-05-07 21:03 | 33.63921 | -118.04932 | 4989 ft | 271 kts | 54° |
| 2026-05-07 21:04 | 33.64967 | -118.03050 | 4984 ft | 271 kts | 54° |
| 2026-05-07 21:04 | 33.65988 | -118.01214 | 4996 ft | 271 kts | 55° |
| 2026-05-07 21:04 | 33.67055 | -117.99300 | 4995 ft | 272 kts | 53° |
| 2026-05-07 21:04 | 33.68103 | -117.97412 | 4981 ft | 271 kts | 54° |
| 2026-05-07 21:05 | 33.69158 | -117.95533 | 4966 ft | 269 kts | 50° |
| 2026-05-07 21:05 | 33.70535 | -117.94136 | 4932 ft | 264 kts | 26° |
| 2026-05-07 21:05 | 33.72155 | -117.93092 | 4911 ft | 266 kts | 25° |
| 2026-05-07 21:05 | 33.73784 | -117.92029 | 4840 ft | 266 kts | 26° |
| 2026-05-07 21:06 | 33.75400 | -117.90984 | 4725 ft | 265 kts | 25° |
| 2026-05-07 21:06 | 33.77031 | -117.89943 | 4638 ft | 265 kts | 26° |
| 2026-05-07 21:06 | 33.78657 | -117.88906 | 4584 ft | 265 kts | 24° |
| 2026-05-07 21:06 | 33.80289 | -117.87866 | 4517 ft | 265 kts | 25° |
| 2026-05-07 21:07 | 33.81923 | -117.86846 | 4442 ft | 264 kts | 25° |
| 2026-05-07 21:07 | 33.83555 | -117.85832 | 4358 ft | 264 kts | 25° |
| 2026-05-07 21:07 | 33.85183 | -117.84823 | 4286 ft | 263 kts | 26° |
| 2026-05-07 21:07 | 33.86814 | -117.83813 | 4235 ft | 263 kts | 25° |
| 2026-05-07 21:08 | 33.88453 | -117.82795 | 3844 ft | 271 kts | 25° |
| 2026-05-07 21:08 | 33.90103 | -117.81773 | 3627 ft | 268 kts | 26° |
| 2026-05-07 21:08 | 33.91733 | -117.80757 | 3586 ft | 262 kts | 25° |
| 2026-05-07 21:08 | 33.93358 | -117.79749 | 3624 ft | 263 kts | 25° |
| 2026-05-07 21:09 | 33.94887 | -117.78525 | 3400 ft | 266 kts | 44° |
| 2026-05-07 21:09 | 33.95826 | -117.76630 | 3282 ft | 266 kts | 73° |
| 2026-05-07 21:09 | 33.95990 | -117.74424 | 3037 ft | 267 kts | 99° |
| 2026-05-07 21:09 | 33.95352 | -117.72361 | 2857 ft | 263 kts | 126° |
| 2026-05-07 21:10 | 33.94051 | -117.70866 | 2752 ft | 256 kts | 153° |
| 2026-05-07 21:10 | 33.92381 | -117.70276 | 2811 ft | 250 kts | 179° |
| 2026-05-07 21:10 | 33.90682 | -117.70658 | 2792 ft | 251 kts | 205° |
| 2026-05-07 21:10 | 33.89297 | -117.71861 | 2767 ft | 236 kts | 224° |
| 2026-05-07 21:11 | 33.88131 | -117.73099 | 2785 ft | 210 kts | 220° |
| 2026-05-07 21:11 | 33.87025 | -117.74086 | 2767 ft | 190 kts | 216° |
| 2026-05-07 21:11 | 33.84829 | -117.75761 | 2782 ft | 189 kts | 212° |
| 2026-05-07 21:12 | 33.83680 | -117.76556 | 2736 ft | 188 kts | 211° |
| 2026-05-07 21:12 | 33.82550 | -117.77310 | 2756 ft | 187 kts | 211° |
| 2026-05-07 21:12 | 33.81406 | -117.78059 | 2742 ft | 187 kts | 209° |
| 2026-05-07 21:12 | 33.80255 | -117.78803 | 2750 ft | 188 kts | 209° |
| 2026-05-07 21:13 | 33.79106 | -117.79543 | 2790 ft | 188 kts | 209° |
| 2026-05-07 21:13 | 33.77946 | -117.80284 | 2538 ft | 191 kts | 209° |
| 2026-05-07 21:13 | 33.76800 | -117.81009 | 2285 ft | 180 kts | 210° |
| 2026-05-07 21:13 | 33.75764 | -117.81668 | 2031 ft | 162 kts | 210° |
| 2026-05-07 21:14 | 33.74812 | -117.82277 | 1778 ft | 146 kts | 210° |
| 2026-05-07 21:14 | 33.73946 | -117.82832 | 1534 ft | 139 kts | 209° |
| 2026-05-07 21:14 | 33.73093 | -117.83375 | 1340 ft | 138 kts | 209° |
| 2026-05-07 21:14 | 33.72259 | -117.83906 | 1136 ft | 134 kts | 208° |
| 2026-05-07 21:15 | 33.71425 | -117.84433 | 930 ft | 137 kts | 206° |
| 2026-05-07 21:15 | 33.70584 | -117.84970 | 746 ft | 136 kts | 209° |
| 2026-05-07 21:15 | 33.69769 | -117.85480 | 505 ft | 132 kts | 207° |
| 2026-05-07 21:15 | 33.68984 | -117.85979 | 264 ft | 129 kts | 205° |
| 2026-05-07 21:16 | 33.68223 | -117.86453 | 99 ft | 129 kts | 209° |
| 2026-05-07 21:16 | 33.67495 | -117.86915 | 56 ft | 96 kts | 208° |
| 2026-05-07 21:16 | 33.67107 | -117.87179 | 54 ft | 33 kts | 206° |
| 2026-05-07 21:16 | 33.66942 | -117.87193 | 52 ft | 18 kts | 144° |
| 2026-05-07 21:17 | 33.66920 | -117.87165 | 53 ft | 4 kts | 128° |
| 2026-05-07 21:17 | 33.66915 | -117.87122 | 51 ft | 7 kts | 91° |
| 2026-05-07 21:17 | 33.66940 | -117.87066 | 53 ft | 9 kts | 40° |
| 2026-05-07 21:17 | 33.66994 | -117.87009 | 53 ft | 12 kts | 40° |
| 2026-05-07 21:18 | 33.67064 | -117.86938 | 50 ft | 14 kts | 40° |
| 2026-05-07 21:18 | 33.67150 | -117.86858 | 51 ft | 17 kts | 33° |
| 2026-05-07 21:18 | 33.67260 | -117.86783 | 52 ft | 19 kts | 33° |
| 2026-05-07 21:18 | 33.67368 | -117.86675 | 51 ft | 21 kts | 24° |
| 2026-05-07 21:19 | 33.67449 | -117.86625 | 50 ft | 12 kts | 28° |
| 2026-05-07 21:19 | 33.67525 | -117.86576 | 51 ft | 9 kts | 31° |
| 2026-05-07 21:19 | 33.67555 | -117.86549 | 51 ft | 3 kts | 65° |
| 2026-05-07 21:19 | 33.67551 | -117.86522 | 51 ft | 2 kts | 116° |
| 2026-05-07 21:20 | 33.67542 | -117.86498 | 53 ft | 5 kts | 117° |
| 2026-05-07 21:20 | 33.67538 | -117.86490 | 53 ft | 1 kts | 118° |
| 2026-05-07 21:20 | 33.67537 | -117.86489 | 53 ft | 0 kts | 118° |